Time;durP1;ratioP1;P1;durP2;ratioP2;P2;SDS_P1;SDS_P2;PMS_P1;PMS_P2;Temp;Humidity;BMP_temperature;BMP_pressure;BME280_temperature;BME280_humidity;BME280_pressure;Samples;Min_cycle;Max_cycle;Signal;HPM_P1;HPM_P2
2023/07/01 00:01:59;;;;;;;11.23;2.22;;;17.60;96.60;;;;;;5003442;28;20143;-70
2023/07/01 00:04:25;;;;;;;12.93;2.70;;;17.50;96.70;;;;;;4939836;28;208009;-69
2023/07/01 00:06:51;;;;;;;10.07;2.47;;;17.50;96.70;;;;;;5002626;28;20447;-68
2023/07/01 00:09:17;;;;;;;11.10;2.50;;;17.60;97.00;;;;;;4980224;28;208638;-68
2023/07/01 00:11:43;;;;;;;12.90;2.50;;;17.50;96.70;;;;;;4971758;28;207263;-68
2023/07/01 00:14:09;;;;;;;11.80;2.45;;;17.50;96.70;;;;;;4985744;28;20062;-69
2023/07/01 00:16:36;;;;;;;11.00;2.08;;;17.50;96.80;;;;;;4940916;28;207319;-68
2023/07/01 00:19:02;;;;;;;15.40;2.55;;;17.50;97.10;;;;;;4987470;28;20050;-69
2023/07/01 00:21:28;;;;;;;11.85;2.30;;;17.50;96.90;;;;;;4932612;28;227205;-68
2023/07/01 00:23:54;;;;;;;13.25;2.50;;;17.50;96.90;;;;;;4987821;28;20404;-69
2023/07/01 00:26:20;;;;;;;10.15;2.40;;;17.60;96.90;;;;;;4953148;28;212235;-70
2023/07/01 00:28:46;;;;;;;13.75;2.28;;;17.50;97.10;;;;;;4988717;28;20062;-69
2023/07/01 00:31:12;;;;;;;14.10;2.65;;;17.60;97.00;;;;;;4920780;28;212864;-69
2023/07/01 00:33:38;;;;;;;11.30;2.10;;;17.60;97.20;;;;;;4985074;28;20069;-68
2023/07/01 00:36:04;;;;;;;11.35;2.30;;;17.60;97.10;;;;;;4955697;28;212502;-69
2023/07/01 00:38:30;;;;;;;11.98;2.55;;;17.60;97.30;;;;;;4992021;28;20511;-69
2023/07/01 00:40:57;;;;;;;12.82;2.40;;;17.60;97.40;;;;;;4946516;28;207065;-69
2023/07/01 00:43:23;;;;;;;10.18;2.40;;;17.60;97.50;;;;;;4987149;28;20066;-69
2023/07/01 00:45:49;;;;;;;9.90;2.53;;;17.60;97.50;;;;;;4954293;28;209792;-69
2023/07/01 00:48:26;;;;;;;12.20;2.42;;;17.60;97.70;;;;;;5018376;28;20049;-69
2023/07/01 00:50:53;;;;;;;14.90;2.50;;;17.60;97.70;;;;;;4971008;28;209795;-69
2023/07/01 00:53:19;;;;;;;11.63;2.45;;;17.60;97.80;;;;;;4999640;28;20058;-69
2023/07/01 00:55:45;;;;;;;12.70;2.47;;;17.60;97.90;;;;;;4930183;28;207316;-68
2023/07/01 00:58:11;;;;;;;13.02;2.40;;;17.60;97.90;;;;;;4992452;28;20069;-69
2023/07/01 01:00:38;;;;;;;14.32;2.40;;;17.60;97.90;;;;;;4936071;28;208560;-69
2023/07/01 01:03:20;;;;;;;8.68;2.30;;;17.60;98.30;;;;;;4989901;28;20246;-68
2023/07/01 01:06:04;;;;;;;11.73;2.40;;;17.60;98.00;;;;;;4942391;28;215292;-69
2023/07/01 01:08:45;;;;;;;10.45;2.20;;;17.60;98.20;;;;;;4984977;28;20062;-69
2023/07/01 01:11:13;;;;;;;11.95;2.53;;;17.60;98.20;;;;;;4945919;28;207970;-68
2023/07/01 01:13:43;;;;;;;11.82;2.40;;;17.60;98.10;;;;;;4992175;28;20053;-68
2023/07/01 01:16:11;;;;;;;12.85;2.50;;;17.60;98.10;;;;;;4972483;28;193284;-68
2023/07/01 01:18:42;;;;;;;11.10;2.42;;;17.60;98.20;;;;;;5014738;28;20064;-68
2023/07/01 01:21:11;;;;;;;12.55;2.53;;;17.60;98.20;;;;;;4940024;28;195934;-69
2023/07/01 01:23:42;;;;;;;10.38;2.60;;;17.60;98.30;;;;;;4987854;28;20054;-68
2023/07/01 01:26:15;;;;;;;11.13;2.50;;;17.60;98.60;;;;;;4970781;28;205949;-69
2023/07/01 01:28:41;;;;;;;10.02;2.20;;;17.50;98.70;;;;;;5013385;28;20539;-68
2023/07/01 01:31:07;;;;;;;14.45;2.38;;;17.50;98.80;;;;;;4956334;28;215146;-68
2023/07/01 01:33:34;;;;;;;9.05;2.20;;;17.50;98.80;;;;;;4992827;28;20058;-69
2023/07/01 01:36:13;;;;;;;14.20;2.53;;;17.50;99.00;;;;;;4951573;28;207368;-69
2023/07/01 01:38:41;;;;;;;14.15;2.63;;;17.40;99.30;;;;;;4995766;28;20062;-69
2023/07/01 01:41:23;;;;;;;14.30;2.65;;;17.40;99.50;;;;;;4945999;28;207143;-68
2023/07/01 01:44:09;;;;;;;8.95;2.20;;;17.40;99.90;;;;;;4992857;28;20082;-69
2023/07/01 01:46:37;;;;;;;13.52;3.03;;;17.20;99.90;;;;;;4950639;28;207396;-69
2023/07/01 01:49:06;;;;;;;15.25;2.97;;;16.90;99.90;;;;;;4989067;28;20432;-68
2023/07/01 01:51:33;;;;;;;13.75;3.33;;;16.70;99.90;;;;;;4961950;28;207840;-68
2023/07/01 01:54:03;;;;;;;15.13;3.10;;;16.50;99.90;;;;;;4988354;28;20055;-69
2023/07/01 01:56:31;;;;;;;15.98;3.50;;;16.50;99.90;;;;;;4957181;28;207408;-69
2023/07/01 01:58:57;;;;;;;11.95;3.33;;;16.50;99.90;;;;;;4999584;28;20047;-69
2023/07/01 02:01:24;;;;;;;15.98;3.60;;;16.50;99.90;;;;;;4960855;28;209017;-69
2023/07/01 02:03:50;;;;;;;12.10;3.70;;;16.50;99.90;;;;;;4983587;28;20109;-69
2023/07/01 02:06:16;;;;;;;12.75;3.88;;;16.50;99.90;;;;;;4970093;28;218000;-68
2023/07/01 02:08:42;;;;;;;13.82;3.55;;;16.60;99.90;;;;;;5010450;28;20431;-68
2023/07/01 02:11:08;;;;;;;11.82;3.50;;;16.60;99.90;;;;;;4949389;28;100609;-68
2023/07/01 02:13:34;;;;;;;9.85;3.30;;;16.60;99.90;;;;;;4989544;28;20046;-68
2023/07/01 02:16:00;;;;;;;10.63;3.63;;;16.70;99.90;;;;;;4953388;28;208004;-69
2023/07/01 02:18:26;;;;;;;14.80;3.60;;;16.70;99.90;;;;;;4997376;28;20528;-68
2023/07/01 02:20:53;;;;;;;10.35;3.13;;;16.80;99.90;;;;;;4955573;28;70118;-68
2023/07/01 02:23:19;;;;;;;9.68;3.35;;;16.80;99.90;;;;;;4997901;28;20050;-68
2023/07/01 02:25:46;;;;;;;11.27;3.20;;;16.80;99.90;;;;;;4958902;28;207632;-69
2023/07/01 02:28:13;;;;;;;11.68;3.30;;;16.90;99.90;;;;;;4996417;28;20046;-68
2023/07/01 02:30:39;;;;;;;13.80;3.40;;;16.90;99.90;;;;;;4952053;28;207889;-66
2023/07/01 02:33:06;;;;;;;10.27;3.67;;;16.90;99.90;;;;;;4997022;28;20503;-67
2023/07/01 02:35:32;;;;;;;13.20;4.25;;;16.90;99.90;;;;;;4948495;28;231597;-69
2023/07/01 02:37:58;;;;;;;13.15;3.90;;;16.90;99.90;;;;;;4993378;28;20065;-69
2023/07/01 02:40:24;;;;;;;14.20;4.05;;;16.90;99.90;;;;;;4948702;28;207463;-67
2023/07/01 02:42:50;;;;;;;12.43;4.03;;;16.80;99.90;;;;;;5003210;28;20054;-68
2023/07/01 02:45:16;;;;;;;13.88;4.53;;;16.70;99.90;;;;;;4930705;28;210803;-67
2023/07/01 02:47:42;;;;;;;11.02;4.30;;;16.60;99.90;;;;;;4990334;28;20077;-69
2023/07/01 02:50:09;;;;;;;14.35;4.25;;;16.40;99.90;;;;;;4938774;28;207526;-68
2023/07/01 02:52:35;;;;;;;14.95;4.47;;;16.40;99.90;;;;;;5019159;28;20057;-69
2023/07/01 02:55:02;;;;;;;13.15;3.95;;;16.40;99.90;;;;;;4956971;28;207942;-68
2023/07/01 02:57:28;;;;;;;12.50;4.15;;;16.40;99.90;;;;;;5018802;28;20518;-68
2023/07/01 02:59:55;;;;;;;13.18;4.10;;;16.40;99.90;;;;;;4956119;28;207101;-69
2023/07/01 03:02:21;;;;;;;11.05;3.90;;;16.40;99.90;;;;;;5018137;28;20526;-68
2023/07/01 03:04:48;;;;;;;14.85;4.60;;;16.40;99.90;;;;;;4947824;28;207442;-69
2023/07/01 03:07:14;;;;;;;11.20;4.05;;;16.40;99.90;;;;;;5008437;28;20061;-67
2023/07/01 03:09:40;;;;;;;12.25;4.18;;;16.40;99.90;;;;;;4950322;28;208210;-68
2023/07/01 03:12:06;;;;;;;11.77;4.38;;;16.40;99.90;;;;;;5022183;28;20077;-68
2023/07/01 03:14:32;;;;;;;10.55;3.67;;;16.30;99.90;;;;;;4950458;28;207690;-69
2023/07/01 03:16:58;;;;;;;14.60;4.00;;;16.20;99.90;;;;;;5020240;28;20115;-68
2023/07/01 03:19:24;;;;;;;13.95;4.32;;;16.20;99.90;;;;;;4963086;28;206886;-68
2023/07/01 03:21:50;;;;;;;11.20;4.05;;;16.20;99.90;;;;;;5017181;28;20566;-69
2023/07/01 03:24:16;;;;;;;12.13;4.50;;;16.20;99.90;;;;;;5009192;28;20053;-69
2023/07/01 03:26:43;;;;;;;10.50;3.88;;;16.20;99.90;;;;;;4961199;28;160880;-69
2023/07/01 03:29:09;;;;;;;13.35;4.22;;;16.20;99.90;;;;;;5008344;28;20076;-69
2023/07/01 03:31:35;;;;;;;13.20;4.05;;;16.20;99.90;;;;;;4969186;28;206965;-69
2023/07/01 03:34:02;;;;;;;12.93;4.18;;;16.10;99.90;;;;;;5008774;28;20050;-69
2023/07/01 03:36:28;;;;;;;12.60;4.10;;;16.00;99.90;;;;;;4945530;28;209737;-69
2023/07/01 03:38:58;;;;;;;11.40;3.90;;;16.00;99.90;;;;;;5008166;28;20045;-69
2023/07/01 03:41:25;;;;;;;11.70;3.85;;;15.90;99.90;;;;;;4959552;28;209486;-68
2023/07/01 03:43:51;;;;;;;13.30;4.53;;;15.80;99.90;;;;;;4987052;28;20496;-69
2023/07/01 03:46:17;;;;;;;17.27;4.35;;;15.80;99.90;;;;;;4957131;28;205984;-69
2023/07/01 03:48:43;;;;;;;11.00;4.00;;;15.90;99.90;;;;;;5012370;28;20050;-69
2023/07/01 03:51:09;;;;;;;11.65;3.72;;;15.90;99.90;;;;;;4974758;28;207830;-68
2023/07/01 03:53:35;;;;;;;12.68;3.80;;;15.90;99.90;;;;;;5011003;28;20053;-69
2023/07/01 03:56:02;;;;;;;10.30;3.70;;;15.90;99.90;;;;;;4945965;28;213487;-69
2023/07/01 03:58:28;;;;;;;13.57;3.92;;;15.90;99.90;;;;;;5006400;28;20058;-69
2023/07/01 04:00:54;;;;;;;14.45;3.72;;;15.90;99.90;;;;;;4958188;28;212334;-68
2023/07/01 04:03:23;;;;;;;13.45;4.10;;;15.90;99.90;;;;;;5010751;28;20688;-68
2023/07/01 04:05:51;;;;;;;11.85;3.65;;;15.90;99.90;;;;;;4960842;28;207483;-69
2023/07/01 04:08:17;;;;;;;10.57;3.58;;;16.00;99.90;;;;;;5013435;28;20062;-69
2023/07/01 04:10:43;;;;;;;11.50;3.45;;;16.00;99.90;;;;;;4960118;28;212952;-69
2023/07/01 04:13:10;;;;;;;10.93;3.58;;;16.00;99.90;;;;;;5010587;28;20061;-69
2023/07/01 04:15:36;;;;;;;10.77;3.75;;;16.00;99.90;;;;;;4969830;28;212741;-69
2023/07/01 04:18:02;;;;;;;10.40;3.63;;;16.00;99.90;;;;;;5023914;28;20069;-68
2023/07/01 04:20:28;;;;;;;9.85;3.53;;;16.00;99.90;;;;;;4960595;28;209976;-68
2023/07/01 04:22:54;;;;;;;11.32;3.70;;;16.10;99.90;;;;;;5019957;28;20042;-68
2023/07/01 04:25:21;;;;;;;13.30;3.58;;;16.10;99.90;;;;;;4962478;28;207753;-69
2023/07/01 04:27:47;;;;;;;12.48;3.50;;;16.10;99.90;;;;;;5018671;28;20240;-69
2023/07/01 04:30:13;;;;;;;12.52;4.20;;;16.10;99.90;;;;;;4968401;28;207011;-68
2023/07/01 04:32:40;;;;;;;10.93;4.30;;;16.20;99.90;;;;;;5021254;28;20415;-69
2023/07/01 04:35:07;;;;;;;10.45;4.20;;;16.20;99.90;;;;;;4970576;28;209471;-69
2023/07/01 04:37:33;;;;;;;17.88;4.35;;;16.20;99.90;;;;;;5015667;28;20046;-69
2023/07/01 04:40:00;;;;;;;11.40;4.20;;;16.20;99.90;;;;;;4927598;28;210823;-69
2023/07/01 04:42:26;;;;;;;11.48;4.13;;;16.30;99.90;;;;;;4986802;28;20058;-68
2023/07/01 04:44:55;;;;;;;12.75;4.20;;;16.30;99.90;;;;;;4937213;28;208800;-68
2023/07/01 04:47:24;;;;;;;13.02;4.63;;;16.40;99.90;;;;;;5001212;28;20038;-69
2023/07/01 04:49:53;;;;;;;13.43;4.45;;;16.30;99.90;;;;;;4935703;28;214987;-68
2023/07/01 04:52:24;;;;;;;12.25;4.30;;;16.40;99.90;;;;;;4985199;28;20058;-69
2023/07/01 04:54:51;;;;;;;11.15;3.72;;;16.40;99.90;;;;;;4922402;28;227340;-68
2023/07/01 04:57:17;;;;;;;9.82;3.78;;;16.50;99.90;;;;;;5015299;28;20055;-70
2023/07/01 04:59:44;;;;;;;10.07;3.70;;;16.50;99.90;;;;;;4933765;28;221376;-70
2023/07/01 05:02:10;;;;;;;11.80;4.20;;;16.50;99.90;;;;;;5004673;28;20054;-69
2023/07/01 05:04:37;;;;;;;13.67;4.00;;;16.50;99.90;;;;;;4936281;28;210099;-69
2023/07/01 05:07:03;;;;;;;11.68;4.00;;;16.50;99.90;;;;;;5016675;28;20038;-70
2023/07/01 05:09:29;;;;;;;13.07;3.80;;;16.50;99.90;;;;;;4934030;28;214422;-69
2023/07/01 05:11:56;;;;;;;9.60;3.80;;;16.50;99.90;;;;;;4998006;28;20054;-70
2023/07/01 05:14:22;;;;;;;14.05;4.00;;;16.50;99.90;;;;;;4977130;28;206153;-69
2023/07/01 05:16:48;;;;;;;9.55;3.53;;;16.50;99.90;;;;;;4968406;28;169685;-69
2023/07/01 05:19:14;;;;;;;9.98;3.58;;;16.50;99.90;;;;;;4995136;28;20051;-69
2023/07/01 05:21:49;;;;;;;14.45;3.95;;;16.50;99.90;;;;;;4958374;28;207217;-69
2023/07/01 05:24:16;;;;;;;9.93;3.38;;;16.60;99.90;;;;;;4986465;28;20062;-69
2023/07/01 05:26:50;;;;;;;11.25;4.10;;;16.60;99.90;;;;;;4989560;28;209450;-69
2023/07/01 05:29:18;;;;;;;12.48;3.70;;;16.50;99.90;;;;;;5008796;28;20512;-70
2023/07/01 05:31:44;;;;;;;10.88;3.83;;;16.50;99.90;;;;;;4943552;28;211410;-69
2023/07/01 05:34:10;;;;;;;12.82;4.07;;;16.60;99.90;;;;;;4985991;28;20057;-69
2023/07/01 05:36:37;;;;;;;15.18;4.43;;;16.60;99.90;;;;;;4950089;28;207225;-69
2023/07/01 05:39:03;;;;;;;11.27;3.92;;;16.60;99.90;;;;;;4992478;28;20393;-69
2023/07/01 05:41:30;;;;;;;10.20;4.05;;;16.60;99.90;;;;;;4973827;28;207991;-69
2023/07/01 05:43:56;;;;;;;10.48;3.95;;;16.60;99.90;;;;;;4988067;28;20050;-69
2023/07/01 05:46:22;;;;;;;10.93;3.92;;;16.60;99.90;;;;;;4953747;28;209580;-69
2023/07/01 05:48:48;;;;;;;8.98;3.78;;;16.60;99.90;;;;;;4989511;28;20057;-69
2023/07/01 05:51:14;;;;;;;12.35;4.25;;;16.60;99.90;;;;;;4976540;28;213058;-70
2023/07/01 05:53:40;;;;;;;13.57;3.90;;;16.60;99.90;;;;;;4991753;28;20054;-69
2023/07/01 05:56:06;;;;;;;10.07;3.78;;;16.70;99.90;;;;;;4906401;28;204157;-70
2023/07/01 05:58:32;;;;;;;11.07;3.95;;;16.70;99.90;;;;;;4986804;28;20515;-70
2023/07/01 06:00:58;;;;;;;8.85;3.70;;;16.70;99.90;;;;;;4941268;28;211319;-70
2023/07/01 06:03:25;;;;;;;12.77;3.88;;;16.70;99.90;;;;;;4989217;28;20057;-69
2023/07/01 06:05:51;;;;;;;10.60;3.65;;;16.70;99.90;;;;;;4935005;28;206365;-69
2023/07/01 06:08:17;;;;;;;12.65;4.40;;;16.70;99.90;;;;;;4998633;28;20586;-70
2023/07/01 06:10:43;;;;;;;11.18;4.00;;;16.70;99.90;;;;;;4951506;28;214865;-69
2023/07/01 06:13:09;;;;;;;13.25;4.10;;;16.80;99.90;;;;;;5000605;28;20057;-70
2023/07/01 06:15:35;;;;;;;13.25;4.00;;;16.80;99.90;;;;;;4954875;28;209898;-69
2023/07/01 06:18:01;;;;;;;10.90;4.38;;;16.70;99.90;;;;;;4994904;28;20769;-69
2023/07/01 06:20:27;;;;;;;10.10;4.25;;;16.80;99.90;;;;;;4944704;28;207332;-69
2023/07/01 06:22:53;;;;;;;11.60;4.43;;;16.80;99.90;;;;;;4992387;28;20058;-67
2023/07/01 06:25:19;;;;;;;10.93;4.40;;;16.70;99.90;;;;;;4949989;28;207701;-68
2023/07/01 06:27:45;;;;;;;11.82;4.88;;;16.70;99.90;;;;;;4993256;28;20423;-69
2023/07/01 06:30:11;;;;;;;14.10;5.32;;;16.70;99.90;;;;;;4947158;28;202926;-69
2023/07/01 06:32:37;;;;;;;13.23;5.40;;;16.60;99.90;;;;;;4975983;28;20055;-69
2023/07/01 06:35:04;;;;;;;10.35;4.78;;;16.60;99.90;;;;;;4935915;28;213062;-69
2023/07/01 06:37:30;;;;;;;10.68;4.90;;;16.50;99.90;;;;;;4985350;28;20523;-69
2023/07/01 06:39:56;;;;;;;11.85;5.10;;;16.40;99.90;;;;;;4942403;28;206126;-70
2023/07/01 06:42:22;;;;;;;9.73;4.90;;;16.40;99.90;;;;;;5008296;28;20062;-68
2023/07/01 06:44:48;;;;;;;13.15;5.38;;;16.40;99.90;;;;;;4936801;28;207231;-69
2023/07/01 06:47:14;;;;;;;11.90;5.60;;;16.40;99.90;;;;;;4977939;28;20053;-69
2023/07/01 06:49:40;;;;;;;10.82;5.30;;;16.40;99.90;;;;;;4929058;28;212499;-68
2023/07/01 06:52:07;;;;;;;10.50;5.22;;;16.50;99.90;;;;;;4996041;28;20042;-68
2023/07/01 06:54:33;;;;;;;12.27;5.72;;;16.50;99.90;;;;;;4914179;28;221671;-67
2023/07/01 06:56:59;;;;;;;10.27;5.50;;;16.60;99.90;;;;;;5005380;28;20050;-69
2023/07/01 06:59:25;;;;;;;12.07;5.05;;;16.60;99.90;;;;;;4960925;28;207710;-69
2023/07/01 07:01:51;;;;;;;13.80;5.20;;;16.60;99.90;;;;;;4983016;28;270864;-68
2023/07/01 07:04:17;;;;;;;9.18;5.00;;;16.60;99.90;;;;;;4989284;28;20415;-69
2023/07/01 07:06:43;;;;;;;11.07;4.45;;;16.60;99.90;;;;;;4926853;28;81542;-69
2023/07/01 07:09:09;;;;;;;11.45;5.00;;;16.60;99.90;;;;;;4988929;28;20051;-69
2023/07/01 07:11:36;;;;;;;10.38;4.60;;;16.70;99.90;;;;;;4962974;28;213104;-68
2023/07/01 07:14:02;;;;;;;8.80;4.53;;;16.80;99.90;;;;;;4988842;28;20050;-68
2023/07/01 07:16:29;;;;;;;9.18;4.55;;;16.80;99.90;;;;;;4955327;28;139522;-69
2023/07/01 07:18:55;;;;;;;9.63;4.75;;;16.80;99.90;;;;;;4988593;28;20411;-68
2023/07/01 07:21:21;;;;;;;8.73;4.30;;;16.90;99.90;;;;;;4981333;28;209843;-68
2023/07/01 07:23:47;;;;;;;8.23;4.28;;;16.90;99.90;;;;;;4984659;28;20492;-69
2023/07/01 07:26:14;;;;;;;12.68;4.68;;;17.00;99.90;;;;;;4962725;28;209352;-69
2023/07/01 07:28:40;;;;;;;9.90;4.38;;;17.00;99.90;;;;;;4983408;28;20525;-69
2023/07/01 07:31:06;;;;;;;10.35;4.85;;;17.00;99.90;;;;;;4936478;28;208051;-69
2023/07/01 07:33:32;;;;;;;11.10;4.60;;;17.00;99.90;;;;;;4990177;28;20511;-69
2023/07/01 07:35:58;;;;;;;9.15;4.25;;;17.10;99.90;;;;;;4942605;28;216194;-70
2023/07/01 07:38:24;;;;;;;10.30;4.50;;;17.10;99.90;;;;;;4984387;28;20682;-68
2023/07/01 07:40:50;;;;;;;8.68;4.35;;;17.00;99.90;;;;;;4947588;28;209374;-68
2023/07/01 07:43:17;;;;;;;9.80;4.22;;;17.00;99.90;;;;;;4995213;28;20054;-68
2023/07/01 07:45:43;;;;;;;8.80;4.63;;;17.00;99.90;;;;;;4959084;28;207122;-68
2023/07/01 07:48:09;;;;;;;9.80;4.53;;;17.00;99.90;;;;;;5020830;28;20061;-69
2023/07/01 07:50:35;;;;;;;9.90;4.93;;;17.10;99.90;;;;;;4957003;28;208458;-69
2023/07/01 07:53:03;;;;;;;9.02;4.63;;;17.10;99.90;;;;;;5000986;28;20598;-67
2023/07/01 07:55:33;;;;;;;10.30;4.90;;;17.00;99.90;;;;;;4931000;28;206867;-69
2023/07/01 07:58:02;;;;;;;9.30;4.72;;;17.10;99.90;;;;;;4995145;28;20058;-69
2023/07/01 08:00:28;;;;;;;9.45;4.78;;;17.10;99.90;;;;;;4949834;28;207527;-68
2023/07/01 08:02:55;;;;;;;9.48;5.00;;;17.10;99.90;;;;;;4991316;28;20046;-68
2023/07/01 08:05:23;;;;;;;10.27;5.35;;;17.10;99.90;;;;;;4946759;28;206970;-69
2023/07/01 08:07:49;;;;;;;9.75;5.07;;;17.20;99.90;;;;;;4997405;28;20046;-68
2023/07/01 08:10:16;;;;;;;9.38;5.00;;;17.30;99.90;;;;;;4940854;28;210029;-69
2023/07/01 08:12:42;;;;;;;11.07;5.25;;;17.30;99.90;;;;;;4997040;28;20054;-69
2023/07/01 08:15:09;;;;;;;9.15;5.20;;;17.40;99.90;;;;;;4937990;28;211028;-69
2023/07/01 08:17:36;;;;;;;9.10;4.70;;;17.50;99.90;;;;;;4985700;28;20050;-69
2023/07/01 08:20:02;;;;;;;11.02;5.32;;;17.60;99.90;;;;;;4950986;28;206917;-68
2023/07/01 08:22:28;;;;;;;9.27;4.32;;;17.60;99.90;;;;;;5039431;28;20061;-70
2023/07/01 08:24:55;;;;;;;8.85;4.72;;;17.70;99.90;;;;;;4955885;28;233459;-70
2023/07/01 08:27:21;;;;;;;10.18;4.38;;;17.70;99.90;;;;;;5008899;28;20056;-69
2023/07/01 08:29:47;;;;;;;9.98;4.88;;;17.70;99.90;;;;;;4951183;28;209605;-70
2023/07/01 08:32:13;;;;;;;11.23;4.88;;;17.60;99.90;;;;;;5003974;28;20046;-70
2023/07/01 08:34:39;;;;;;;9.23;4.72;;;17.60;99.90;;;;;;4945335;28;207868;-68
2023/07/01 08:37:05;;;;;;;9.27;4.90;;;17.70;99.90;;;;;;5011904;28;20042;-69
2023/07/01 08:39:32;;;;;;;9.63;4.60;;;17.70;99.90;;;;;;4925821;28;207727;-70
2023/07/01 08:42:05;;;;;;;9.65;4.90;;;17.70;99.90;;;;;;5017306;28;20066;-69
2023/07/01 08:44:32;;;;;;;9.07;4.60;;;17.70;99.90;;;;;;4938908;28;208002;-69
2023/07/01 08:46:59;;;;;;;9.88;4.72;;;17.70;99.90;;;;;;5009978;28;20061;-70
2023/07/01 08:49:27;;;;;;;9.23;4.80;;;17.70;99.90;;;;;;4959930;28;213153;-69
2023/07/01 08:52:06;;;;;;;9.05;4.93;;;17.70;99.90;;;;;;5002462;28;20511;-69
2023/07/01 08:54:34;;;;;;;9.55;5.50;;;17.60;99.90;;;;;;4950693;28;209535;-70
2023/07/01 08:57:01;;;;;;;9.10;5.15;;;17.70;99.90;;;;;;5011617;28;20050;-71
2023/07/01 08:59:28;;;;;;;10.70;5.40;;;17.60;99.90;;;;;;4941652;28;207891;-69
2023/07/01 09:01:56;;;;;;;9.35;5.00;;;17.60;99.90;;;;;;5000346;28;20424;-70
2023/07/01 09:04:23;;;;;;;9.45;5.40;;;17.60;99.90;;;;;;4999581;28;216060;-70
2023/07/01 09:06:49;;;;;;;9.95;5.20;;;17.60;99.90;;;;;;4968496;28;193497;-69
2023/07/01 09:09:15;;;;;;;9.80;5.50;;;17.70;99.90;;;;;;4993209;28;20389;-71
2023/07/01 09:11:41;;;;;;;9.93;5.32;;;17.70;99.90;;;;;;4951777;28;207558;-68
2023/07/01 09:14:07;;;;;;;9.27;5.63;;;17.70;99.90;;;;;;4991252;28;20046;-68
2023/07/01 09:16:37;;;;;;;9.80;5.22;;;17.80;99.90;;;;;;4945063;28;210403;-69
2023/07/01 09:19:10;;;;;;;9.18;5.07;;;17.90;99.90;;;;;;4988723;28;20054;-69
2023/07/01 09:21:37;;;;;;;8.98;5.40;;;17.90;99.90;;;;;;4967187;28;112949;-70
2023/07/01 09:24:08;;;;;;;8.98;5.20;;;17.90;99.90;;;;;;4984968;28;20055;-67
2023/07/01 09:26:34;;;;;;;11.07;5.30;;;17.90;99.90;;;;;;4949422;28;201731;-69
2023/07/01 09:29:10;;;;;;;9.95;5.40;;;18.00;99.90;;;;;;4985561;28;20047;-69
2023/07/01 09:31:45;;;;;;;8.63;4.97;;;18.00;99.90;;;;;;4948539;28;215189;-70
2023/07/01 09:34:12;;;;;;;8.98;5.30;;;18.00;99.90;;;;;;5009449;28;20170;-68
2023/07/01 09:36:38;;;;;;;9.15;4.85;;;18.00;99.90;;;;;;4957455;28;212248;-68
2023/07/01 09:39:05;;;;;;;8.13;4.40;;;18.00;99.90;;;;;;5010983;28;20554;-69
2023/07/01 09:41:31;;;;;;;8.48;4.80;;;18.00;99.90;;;;;;4975508;28;210227;-70
2023/07/01 09:43:58;;;;;;;8.85;4.90;;;18.10;99.90;;;;;;5013329;28;20457;-69
2023/07/01 09:46:40;;;;;;;8.90;4.80;;;18.10;99.90;;;;;;4952998;28;206947;-69
2023/07/01 09:49:07;;;;;;;8.77;4.45;;;18.00;99.90;;;;;;5005734;28;20057;-68
2023/07/01 09:51:45;;;;;;;8.75;3.97;;;18.20;99.90;;;;;;4966591;28;211092;-67
2023/07/01 09:54:29;;;;;;;9.30;4.30;;;18.30;99.90;;;;;;5006752;28;20057;-68
2023/07/01 09:56:57;;;;;;;8.93;4.70;;;18.20;99.90;;;;;;4937034;28;20097;-68
2023/07/01 09:59:24;;;;;;;8.25;4.38;;;18.30;99.90;;;;;;4973621;28;218007;-69
2023/07/01 10:01:54;;;;;;;8.23;4.80;;;18.20;99.90;;;;;;4971187;28;20102;-67
2023/07/01 10:04:25;;;;;;;10.05;4.68;;;18.20;99.90;;;;;;4989551;28;208072;-68
2023/07/01 10:06:53;;;;;;;10.65;5.13;;;18.20;99.90;;;;;;4948032;28;270853;-69
2023/07/01 10:09:23;;;;;;;10.60;4.97;;;18.20;99.90;;;;;;5009928;28;20061;-69
2023/07/01 10:11:52;;;;;;;8.68;5.00;;;18.20;99.90;;;;;;4964828;28;67286;-68
2023/07/01 10:14:22;;;;;;;8.98;4.97;;;18.20;99.90;;;;;;5010936;28;20057;-69
2023/07/01 10:16:49;;;;;;;8.95;5.32;;;18.20;99.90;;;;;;4943598;28;117528;-68
2023/07/01 10:19:32;;;;;;;10.23;5.88;;;18.20;99.90;;;;;;4987377;28;20057;-68
2023/07/01 10:22:29;;;;;;;8.98;5.13;;;18.30;99.90;;;;;;4951717;28;62436;-70
2023/07/01 10:25:03;;;;;;;9.60;5.30;;;18.30;99.90;;;;;;4956151;28;215493;-68
2023/07/01 10:27:42;;;;;;;9.40;5.60;;;18.40;99.90;;;;;;4981821;28;20062;-67
2023/07/01 10:30:14;;;;;;;8.88;5.22;;;18.30;99.90;;;;;;4947323;28;207718;-69
2023/07/01 10:32:41;;;;;;;10.10;5.43;;;18.40;99.90;;;;;;4990071;28;20053;-68
2023/07/01 10:35:10;;;;;;;8.93;5.35;;;18.40;99.90;;;;;;4937328;28;208583;-69
2023/07/01 10:37:36;;;;;;;9.23;5.30;;;18.30;99.90;;;;;;4986438;28;20053;-66
2023/07/01 10:40:23;;;;;;;10.88;5.82;;;18.30;99.90;;;;;;4935536;28;207091;-69
2023/07/01 10:42:49;;;;;;;9.95;5.50;;;18.30;99.90;;;;;;4976730;28;20050;-70
2023/07/01 10:45:16;;;;;;;10.73;5.85;;;18.30;99.90;;;;;;4940091;28;208954;-71
2023/07/01 10:47:46;;;;;;;9.07;5.10;;;18.40;99.90;;;;;;4987932;28;20054;-72
2023/07/01 10:50:16;;;;;;;9.70;5.40;;;18.40;99.90;;;;;;4944460;28;207280;-71
2023/07/01 10:52:58;;;;;;;8.50;4.97;;;18.40;99.90;;;;;;4986346;28;20056;-69
2023/07/01 10:55:44;;;;;;;9.80;4.60;;;18.30;99.90;;;;;;4931575;28;210793;-69
2023/07/01 10:58:22;;;;;;;7.53;3.50;;;18.30;99.90;;;;;;4998431;28;20047;-69
2023/07/01 11:00:49;;;;;;;6.40;2.20;;;18.20;99.90;;;;;;4936841;28;214143;-68
2023/07/01 11:03:34;;;;;;;6.07;1.70;;;18.20;99.90;;;;;;4982076;28;20054;-69
2023/07/01 11:06:13;;;;;;;5.47;1.50;;;18.10;99.90;;;;;;4924846;28;211597;-70
2023/07/01 11:08:48;;;;;;;4.88;1.40;;;18.00;99.90;;;;;;4988389;28;20073;-69
2023/07/01 11:11:23;;;;;;;5.55;1.50;;;18.10;99.90;;;;;;4959967;28;207172;-70
2023/07/01 11:14:03;;;;;;;6.07;1.40;;;18.10;99.90;;;;;;4986507;28;20058;-69
2023/07/01 11:16:30;;;;;;;6.88;1.60;;;18.20;99.90;;;;;;4941677;28;147995;-68
2023/07/01 11:18:58;;;;;;;5.00;1.60;;;18.20;99.90;;;;;;4987471;28;20050;-70
2023/07/01 11:21:29;;;;;;;4.35;1.30;;;18.30;99.90;;;;;;4965487;28;220855;-69
2023/07/01 11:23:59;;;;;;;4.95;1.10;;;18.20;99.90;;;;;;4989481;28;20062;-71
2023/07/01 11:26:27;;;;;;;4.47;1.00;;;18.30;99.90;;;;;;4970400;28;209696;-70
2023/07/01 11:28:54;;;;;;;2.83;0.80;;;18.40;99.90;;;;;;4987651;28;20062;-70
2023/07/01 11:31:25;;;;;;;3.72;0.90;;;18.40;99.90;;;;;;4943006;28;216279;-70
2023/07/01 11:33:54;;;;;;;3.10;1.00;;;18.50;99.90;;;;;;4989275;28;20057;-71
2023/07/01 11:36:38;;;;;;;4.35;1.20;;;18.70;99.90;;;;;;4941104;28;207448;-70
2023/07/01 11:39:13;;;;;;;4.25;1.10;;;18.80;99.90;;;;;;4989851;28;20054;-70
2023/07/01 11:41:42;;;;;;;4.80;1.50;;;19.00;99.90;;;;;;4944304;28;206900;-71
2023/07/01 11:44:11;;;;;;;5.25;1.30;;;19.20;99.90;;;;;;4975974;28;20065;-71
2023/07/01 11:46:40;;;;;;;3.92;1.10;;;19.30;99.90;;;;;;4935607;28;249401;-73
2023/07/01 11:49:29;;;;;;;6.32;1.50;;;19.50;99.90;;;;;;4983285;28;20047;-72
2023/07/01 11:52:00;;;;;;;6.30;1.70;;;20.00;99.90;;;;;;4940540;28;133406;-72
2023/07/01 11:54:38;;;;;;;5.97;1.70;;;20.20;99.90;;;;;;4944261;28;210146;-72
2023/07/01 11:57:10;;;;;;;6.07;1.88;;;20.70;99.90;;;;;;4976686;28;82672;-72
2023/07/01 11:59:37;;;;;;;6.95;2.25;;;21.10;99.90;;;;;;4935646;28;212985;-71
2023/07/01 12:02:04;;;;;;;6.68;2.05;;;21.60;99.90;;;;;;5006296;28;20063;-71
2023/07/01 12:04:30;;;;;;;6.60;2.50;;;22.00;99.90;;;;;;4941842;28;219079;-70
2023/07/01 12:07:10;;;;;;;6.93;2.63;;;22.00;99.90;;;;;;4999781;28;20061;-71
2023/07/01 12:09:40;;;;;;;8.55;2.90;;;21.80;99.90;;;;;;4936235;28;207843;-72
2023/07/01 12:12:07;;;;;;;9.30;3.40;;;21.40;99.90;;;;;;4985387;28;20058;-72
2023/07/01 12:14:34;;;;;;;7.30;2.87;;;21.10;99.90;;;;;;4939413;28;212186;-72
2023/07/01 12:17:00;;;;;;;8.82;3.30;;;20.80;99.90;;;;;;5000628;28;20054;-72
2023/07/01 12:19:26;;;;;;;9.02;3.90;;;20.60;99.90;;;;;;4954800;28;226767;-71
2023/07/01 12:21:54;;;;;;;9.27;4.07;;;20.50;99.90;;;;;;5005459;28;20038;-73
2023/07/01 12:24:21;;;;;;;15.70;5.57;;;20.50;99.90;;;;;;4986536;28;20069;-72
2023/07/01 12:26:52;;;;;;;6.95;3.28;;;20.50;99.90;;;;;;4960284;28;44429;-72
2023/07/01 12:29:19;;;;;;;7.85;3.55;;;20.20;99.90;;;;;;5003932;28;20050;-71
2023/07/01 12:31:45;;;;;;;8.43;2.90;;;20.10;99.90;;;;;;4948800;28;207202;-73
2023/07/01 12:34:12;;;;;;;8.88;3.58;;;20.00;99.90;;;;;;5008341;28;20053;-73
2023/07/01 12:36:38;;;;;;;9.43;4.20;;;19.90;99.90;;;;;;4952372;28;215748;-73
2023/07/01 12:39:07;;;;;;;9.63;4.20;;;20.20;99.90;;;;;;4993488;28;20057;-73
2023/07/01 12:41:36;;;;;;;9.15;4.22;;;20.50;99.90;;;;;;4947404;28;209359;-73